sensor_id;sensor_type;location;lat;lon;timestamp;P1;durP1;ratioP1;P2;durP2;ratioP2
41799;SDS011;27468;47.460;19.034;2022-10-31T00:02:15;77.68;;;34.03;;
41799;SDS011;27468;47.460;19.034;2022-10-31T00:04:41;92.53;;;37.47;;
41799;SDS011;27468;47.460;19.034;2022-10-31T00:07:06;90.40;;;36.20;;
41799;SDS011;27468;47.460;19.034;2022-10-31T00:09:31;88.45;;;35.92;;
41799;SDS011;27468;47.460;19.034;2022-10-31T00:11:57;89.65;;;35.50;;
41799;SDS011;27468;47.460;19.034;2022-10-31T00:14:22;79.97;;;34.65;;
41799;SDS011;27468;47.460;19.034;2022-10-31T00:16:48;87.97;;;35.28;;
41799;SDS011;27468;47.460;19.034;2022-10-31T00:19:13;89.82;;;36.65;;
41799;SDS011;27468;47.460;19.034;2022-10-31T00:21:38;91.07;;;35.35;;
41799;SDS011;27468;47.460;19.034;2022-10-31T00:24:04;89.95;;;35.60;;
41799;SDS011;27468;47.460;19.034;2022-10-31T00:26:30;91.03;;;35.53;;
41799;SDS011;27468;47.460;19.034;2022-10-31T00:28:57;101.38;;;37.25;;
41799;SDS011;27468;47.460;19.034;2022-10-31T00:31:23;96.38;;;37.15;;
41799;SDS011;27468;47.460;19.034;2022-10-31T00:33:48;94.63;;;38.00;;
41799;SDS011;27468;47.460;19.034;2022-10-31T00:36:15;96.20;;;35.60;;
41799;SDS011;27468;47.460;19.034;2022-10-31T00:38:42;93.68;;;34.05;;
41799;SDS011;27468;47.460;19.034;2022-10-31T00:41:09;98.70;;;36.38;;
41799;SDS011;27468;47.460;19.034;2022-10-31T00:43:35;101.10;;;36.08;;
41799;SDS011;27468;47.460;19.034;2022-10-31T00:46:01;100.88;;;36.67;;
41799;SDS011;27468;47.460;19.034;2022-10-31T00:48:26;95.28;;;33.83;;
41799;SDS011;27468;47.460;19.034;2022-10-31T00:50:52;94.75;;;34.33;;
41799;SDS011;27468;47.460;19.034;2022-10-31T00:53:17;89.53;;;36.17;;
41799;SDS011;27468;47.460;19.034;2022-10-31T00:55:42;93.18;;;33.88;;
41799;SDS011;27468;47.460;19.034;2022-10-31T00:58:08;102.30;;;35.47;;
41799;SDS011;27468;47.460;19.034;2022-10-31T01:00:33;100.38;;;34.88;;
41799;SDS011;27468;47.460;19.034;2022-10-31T01:02:59;90.55;;;33.58;;
41799;SDS011;27468;47.460;19.034;2022-10-31T01:05:24;87.10;;;32.47;;
41799;SDS011;27468;47.460;19.034;2022-10-31T01:07:50;88.72;;;33.63;;
41799;SDS011;27468;47.460;19.034;2022-10-31T01:10:15;93.82;;;33.28;;
41799;SDS011;27468;47.460;19.034;2022-10-31T01:12:44;87.20;;;31.95;;
41799;SDS011;27468;47.460;19.034;2022-10-31T01:15:13;86.13;;;31.10;;
41799;SDS011;27468;47.460;19.034;2022-10-31T01:17:40;86.85;;;31.10;;
41799;SDS011;27468;47.460;19.034;2022-10-31T01:20:06;82.03;;;30.02;;
41799;SDS011;27468;47.460;19.034;2022-10-31T01:22:33;77.05;;;29.75;;
41799;SDS011;27468;47.460;19.034;2022-10-31T01:24:58;71.47;;;28.02;;
41799;SDS011;27468;47.460;19.034;2022-10-31T01:27:24;71.18;;;27.42;;
41799;SDS011;27468;47.460;19.034;2022-10-31T01:29:49;66.38;;;26.27;;
41799;SDS011;27468;47.460;19.034;2022-10-31T01:32:15;66.88;;;26.42;;
41799;SDS011;27468;47.460;19.034;2022-10-31T01:34:40;65.57;;;25.65;;
41799;SDS011;27468;47.460;19.034;2022-10-31T01:37:06;58.22;;;24.65;;
41799;SDS011;27468;47.460;19.034;2022-10-31T01:39:31;60.35;;;25.55;;
41799;SDS011;27468;47.460;19.034;2022-10-31T01:41:57;63.72;;;25.08;;
41799;SDS011;27468;47.460;19.034;2022-10-31T01:49:24;57.38;;;23.58;;
41799;SDS011;27468;47.460;19.034;2022-10-31T01:52:16;58.80;;;23.95;;
41799;SDS011;27468;47.460;19.034;2022-10-31T01:54:48;57.00;;;22.88;;
41799;SDS011;27468;47.460;19.034;2022-10-31T01:57:23;51.53;;;21.70;;
41799;SDS011;27468;47.460;19.034;2022-10-31T01:59:51;48.15;;;21.45;;
41799;SDS011;27468;47.460;19.034;2022-10-31T02:02:22;45.50;;;20.83;;
41799;SDS011;27468;47.460;19.034;2022-10-31T02:04:48;47.25;;;20.85;;
41799;SDS011;27468;47.460;19.034;2022-10-31T02:07:15;43.53;;;20.02;;
41799;SDS011;27468;47.460;19.034;2022-10-31T02:09:45;43.58;;;19.60;;
41799;SDS011;27468;47.460;19.034;2022-10-31T02:12:12;39.35;;;19.23;;
41799;SDS011;27468;47.460;19.034;2022-10-31T02:14:39;39.47;;;18.23;;
41799;SDS011;27468;47.460;19.034;2022-10-31T02:17:05;35.95;;;17.83;;
41799;SDS011;27468;47.460;19.034;2022-10-31T02:33:52;46.40;;;19.77;;
41799;SDS011;27468;47.460;19.034;2022-10-31T02:36:28;40.95;;;18.05;;
41799;SDS011;27468;47.460;19.034;2022-10-31T02:44:42;52.47;;;21.63;;
41799;SDS011;27468;47.460;19.034;2022-10-31T02:47:15;51.03;;;21.35;;
41799;SDS011;27468;47.460;19.034;2022-10-31T02:52:32;47.65;;;20.45;;
41799;SDS011;27468;47.460;19.034;2022-10-31T02:55:08;48.53;;;20.80;;
41799;SDS011;27468;47.460;19.034;2022-10-31T02:57:36;54.25;;;20.70;;
41799;SDS011;27468;47.460;19.034;2022-10-31T03:00:06;58.63;;;22.23;;
41799;SDS011;27468;47.460;19.034;2022-10-31T03:03:07;59.03;;;22.88;;
41799;SDS011;27468;47.460;19.034;2022-10-31T03:10:55;61.33;;;23.38;;
41799;SDS011;27468;47.460;19.034;2022-10-31T03:13:34;66.15;;;23.08;;
41799;SDS011;27468;47.460;19.034;2022-10-31T03:16:25;67.05;;;23.73;;
41799;SDS011;27468;47.460;19.034;2022-10-31T03:19:08;61.00;;;22.90;;
41799;SDS011;27468;47.460;19.034;2022-10-31T03:24:12;63.58;;;23.63;;
41799;SDS011;27468;47.460;19.034;2022-10-31T03:26:41;65.72;;;22.85;;
41799;SDS011;27468;47.460;19.034;2022-10-31T03:29:13;60.75;;;23.92;;
41799;SDS011;27468;47.460;19.034;2022-10-31T03:34:13;68.13;;;23.20;;
41799;SDS011;27468;47.460;19.034;2022-10-31T03:36:40;59.97;;;22.42;;
41799;SDS011;27468;47.460;19.034;2022-10-31T03:39:09;63.92;;;22.63;;
41799;SDS011;27468;47.460;19.034;2022-10-31T03:41:40;56.65;;;22.40;;
41799;SDS011;27468;47.460;19.034;2022-10-31T03:44:13;52.42;;;20.88;;
41799;SDS011;27468;47.460;19.034;2022-10-31T03:46:42;59.60;;;21.63;;
41799;SDS011;27468;47.460;19.034;2022-10-31T03:49:08;52.67;;;21.35;;
41799;SDS011;27468;47.460;19.034;2022-10-31T03:51:53;56.92;;;21.95;;
41799;SDS011;27468;47.460;19.034;2022-10-31T03:54:25;56.08;;;21.60;;
41799;SDS011;27468;47.460;19.034;2022-10-31T03:57:08;52.67;;;21.00;;
41799;SDS011;27468;47.460;19.034;2022-10-31T04:00:05;55.97;;;21.30;;
41799;SDS011;27468;47.460;19.034;2022-10-31T04:02:31;60.50;;;21.50;;
41799;SDS011;27468;47.460;19.034;2022-10-31T04:04:59;55.60;;;21.05;;
41799;SDS011;27468;47.460;19.034;2022-10-31T04:07:26;58.35;;;21.83;;
41799;SDS011;27468;47.460;19.034;2022-10-31T04:09:55;60.15;;;21.52;;
41799;SDS011;27468;47.460;19.034;2022-10-31T04:12:25;57.22;;;21.50;;
41799;SDS011;27468;47.460;19.034;2022-10-31T04:14:54;60.60;;;22.27;;
41799;SDS011;27468;47.460;19.034;2022-10-31T04:17:21;58.83;;;21.52;;
41799;SDS011;27468;47.460;19.034;2022-10-31T04:19:52;59.78;;;22.48;;
41799;SDS011;27468;47.460;19.034;2022-10-31T04:22:17;61.10;;;21.10;;
41799;SDS011;27468;47.460;19.034;2022-10-31T04:24:43;62.58;;;22.48;;
41799;SDS011;27468;47.460;19.034;2022-10-31T04:27:08;67.68;;;22.27;;
41799;SDS011;27468;47.460;19.034;2022-10-31T04:29:34;67.10;;;22.70;;
41799;SDS011;27468;47.460;19.034;2022-10-31T04:31:59;63.85;;;23.23;;
41799;SDS011;27468;47.460;19.034;2022-10-31T04:34:24;67.80;;;23.80;;
41799;SDS011;27468;47.460;19.034;2022-10-31T04:36:50;63.15;;;22.23;;
41799;SDS011;27468;47.460;19.034;2022-10-31T04:39:15;67.25;;;22.17;;
41799;SDS011;27468;47.460;19.034;2022-10-31T04:41:40;60.60;;;22.02;;
41799;SDS011;27468;47.460;19.034;2022-10-31T04:44:06;64.32;;;22.05;;
41799;SDS011;27468;47.460;19.034;2022-10-31T04:46:31;65.30;;;22.42;;
41799;SDS011;27468;47.460;19.034;2022-10-31T04:48:57;66.75;;;22.17;;
41799;SDS011;27468;47.460;19.034;2022-10-31T04:51:22;67.28;;;21.70;;
41799;SDS011;27468;47.460;19.034;2022-10-31T04:53:48;61.05;;;21.25;;
41799;SDS011;27468;47.460;19.034;2022-10-31T04:56:13;58.85;;;21.88;;
41799;SDS011;27468;47.460;19.034;2022-10-31T04:58:39;67.85;;;22.30;;
41799;SDS011;27468;47.460;19.034;2022-10-31T05:01:04;64.03;;;22.17;;
41799;SDS011;27468;47.460;19.034;2022-10-31T05:03:29;67.05;;;22.75;;
41799;SDS011;27468;47.460;19.034;2022-10-31T05:05:55;65.45;;;22.48;;
41799;SDS011;27468;47.460;19.034;2022-10-31T05:08:20;70.88;;;22.88;;
41799;SDS011;27468;47.460;19.034;2022-10-31T05:10:46;72.53;;;22.60;;
41799;SDS011;27468;47.460;19.034;2022-10-31T05:13:11;66.65;;;22.48;;
41799;SDS011;27468;47.460;19.034;2022-10-31T05:15:36;71.32;;;24.00;;
41799;SDS011;27468;47.460;19.034;2022-10-31T05:18:02;59.72;;;22.15;;
41799;SDS011;27468;47.460;19.034;2022-10-31T05:20:28;61.08;;;20.92;;
41799;SDS011;27468;47.460;19.034;2022-10-31T05:22:55;59.42;;;20.23;;
41799;SDS011;27468;47.460;19.034;2022-10-31T05:25:23;61.88;;;21.00;;
41799;SDS011;27468;47.460;19.034;2022-10-31T05:27:50;57.53;;;19.40;;
41799;SDS011;27468;47.460;19.034;2022-10-31T05:30:27;60.63;;;20.80;;
41799;SDS011;27468;47.460;19.034;2022-10-31T05:32:54;63.85;;;21.25;;
41799;SDS011;27468;47.460;19.034;2022-10-31T05:35:21;59.33;;;21.27;;
41799;SDS011;27468;47.460;19.034;2022-10-31T05:37:48;58.55;;;20.73;;
41799;SDS011;27468;47.460;19.034;2022-10-31T05:40:14;58.30;;;20.35;;
41799;SDS011;27468;47.460;19.034;2022-10-31T05:42:41;54.47;;;20.67;;
41799;SDS011;27468;47.460;19.034;2022-10-31T05:45:11;61.15;;;20.90;;
41799;SDS011;27468;47.460;19.034;2022-10-31T05:47:41;53.78;;;18.92;;
41799;SDS011;27468;47.460;19.034;2022-10-31T05:50:07;53.08;;;20.70;;
41799;SDS011;27468;47.460;19.034;2022-10-31T05:52:34;53.45;;;20.08;;
41799;SDS011;27468;47.460;19.034;2022-10-31T05:55:00;51.50;;;19.50;;
41799;SDS011;27468;47.460;19.034;2022-10-31T05:57:25;49.83;;;18.77;;
41799;SDS011;27468;47.460;19.034;2022-10-31T05:59:51;49.65;;;19.30;;
41799;SDS011;27468;47.460;19.034;2022-10-31T06:02:19;44.17;;;18.75;;
41799;SDS011;27468;47.460;19.034;2022-10-31T06:04:45;49.83;;;18.73;;
41799;SDS011;27468;47.460;19.034;2022-10-31T06:07:11;43.20;;;18.13;;
41799;SDS011;27468;47.460;19.034;2022-10-31T06:09:36;43.83;;;18.20;;
41799;SDS011;27468;47.460;19.034;2022-10-31T06:12:02;44.35;;;17.80;;
41799;SDS011;27468;47.460;19.034;2022-10-31T06:14:29;42.88;;;18.55;;
41799;SDS011;27468;47.460;19.034;2022-10-31T06:16:54;48.63;;;17.58;;
41799;SDS011;27468;47.460;19.034;2022-10-31T06:19:20;44.85;;;17.73;;
41799;SDS011;27468;47.460;19.034;2022-10-31T06:21:46;50.40;;;18.88;;
41799;SDS011;27468;47.460;19.034;2022-10-31T06:24:11;48.10;;;19.73;;
41799;SDS011;27468;47.460;19.034;2022-10-31T06:26:37;43.38;;;17.55;;
41799;SDS011;27468;47.460;19.034;2022-10-31T06:29:02;43.42;;;17.88;;
41799;SDS011;27468;47.460;19.034;2022-10-31T06:31:31;44.05;;;19.27;;
41799;SDS011;27468;47.460;19.034;2022-10-31T06:33:56;45.05;;;18.65;;
41799;SDS011;27468;47.460;19.034;2022-10-31T06:36:21;47.10;;;19.15;;
41799;SDS011;27468;47.460;19.034;2022-10-31T06:38:47;44.42;;;18.67;;
41799;SDS011;27468;47.460;19.034;2022-10-31T06:41:12;49.47;;;18.88;;
41799;SDS011;27468;47.460;19.034;2022-10-31T06:43:38;45.00;;;19.13;;
41799;SDS011;27468;47.460;19.034;2022-10-31T06:46:03;47.75;;;19.08;;
41799;SDS011;27468;47.460;19.034;2022-10-31T06:48:30;46.90;;;20.13;;
41799;SDS011;27468;47.460;19.034;2022-10-31T06:50:59;45.78;;;19.17;;
41799;SDS011;27468;47.460;19.034;2022-10-31T06:53:25;51.20;;;20.25;;
41799;SDS011;27468;47.460;19.034;2022-10-31T06:55:51;46.13;;;17.85;;
41799;SDS011;27468;47.460;19.034;2022-10-31T06:58:16;44.90;;;18.73;;
41799;SDS011;27468;47.460;19.034;2022-10-31T07:00:42;48.20;;;19.67;;
41799;SDS011;27468;47.460;19.034;2022-10-31T07:03:11;43.75;;;19.45;;
41799;SDS011;27468;47.460;19.034;2022-10-31T07:05:37;46.53;;;20.50;;
41799;SDS011;27468;47.460;19.034;2022-10-31T07:08:06;48.03;;;19.75;;
41799;SDS011;27468;47.460;19.034;2022-10-31T07:10:33;45.20;;;18.67;;
41799;SDS011;27468;47.460;19.034;2022-10-31T07:13:01;44.72;;;19.73;;
41799;SDS011;27468;47.460;19.034;2022-10-31T07:15:29;47.03;;;19.52;;
41799;SDS011;27468;47.460;19.034;2022-10-31T07:18:00;50.10;;;20.65;;
41799;SDS011;27468;47.460;19.034;2022-10-31T07:20:30;45.83;;;19.42;;
41799;SDS011;27468;47.460;19.034;2022-10-31T07:22:56;48.15;;;19.95;;
41799;SDS011;27468;47.460;19.034;2022-10-31T07:25:22;48.15;;;20.25;;
41799;SDS011;27468;47.460;19.034;2022-10-31T07:27:48;43.28;;;19.33;;
41799;SDS011;27468;47.460;19.034;2022-10-31T07:30:14;51.53;;;20.60;;
41799;SDS011;27468;47.460;19.034;2022-10-31T07:32:46;48.88;;;20.40;;
41799;SDS011;27468;47.460;19.034;2022-10-31T07:35:16;49.67;;;20.60;;
41799;SDS011;27468;47.460;19.034;2022-10-31T07:37:49;51.75;;;21.23;;
41799;SDS011;27468;47.460;19.034;2022-10-31T07:40:15;54.45;;;21.63;;
41799;SDS011;27468;47.460;19.034;2022-10-31T07:42:41;55.08;;;21.98;;
41799;SDS011;27468;47.460;19.034;2022-10-31T07:45:09;53.42;;;21.63;;
41799;SDS011;27468;47.460;19.034;2022-10-31T07:50:05;59.58;;;22.60;;
41799;SDS011;27468;47.460;19.034;2022-10-31T07:52:30;62.80;;;21.85;;
41799;SDS011;27468;47.460;19.034;2022-10-31T07:54:56;58.60;;;23.30;;
41799;SDS011;27468;47.460;19.034;2022-10-31T07:57:21;63.28;;;23.38;;
41799;SDS011;27468;47.460;19.034;2022-10-31T07:59:47;65.78;;;24.40;;
41799;SDS011;27468;47.460;19.034;2022-10-31T08:02:12;64.47;;;23.25;;
41799;SDS011;27468;47.460;19.034;2022-10-31T08:04:38;62.85;;;23.25;;
41799;SDS011;27468;47.460;19.034;2022-10-31T08:07:03;65.20;;;23.88;;
41799;SDS011;27468;47.460;19.034;2022-10-31T08:09:29;62.05;;;23.13;;
41799;SDS011;27468;47.460;19.034;2022-10-31T08:11:54;64.35;;;23.48;;
41799;SDS011;27468;47.460;19.034;2022-10-31T08:14:19;66.32;;;25.17;;
41799;SDS011;27468;47.460;19.034;2022-10-31T08:16:45;63.90;;;22.88;;
41799;SDS011;27468;47.460;19.034;2022-10-31T08:19:11;64.63;;;24.00;;
41799;SDS011;27468;47.460;19.034;2022-10-31T08:21:36;70.85;;;25.15;;
41799;SDS011;27468;47.460;19.034;2022-10-31T08:24:02;60.03;;;23.60;;
41799;SDS011;27468;47.460;19.034;2022-10-31T08:26:27;62.97;;;23.83;;
41799;SDS011;27468;47.460;19.034;2022-10-31T08:28:52;58.45;;;22.63;;
41799;SDS011;27468;47.460;19.034;2022-10-31T08:31:19;56.97;;;22.45;;
41799;SDS011;27468;47.460;19.034;2022-10-31T08:33:46;63.25;;;23.30;;
41799;SDS011;27468;47.460;19.034;2022-10-31T08:36:11;58.47;;;24.70;;
41799;SDS011;27468;47.460;19.034;2022-10-31T08:38:37;57.63;;;23.35;;
41799;SDS011;27468;47.460;19.034;2022-10-31T08:41:02;54.00;;;21.13;;
41799;SDS011;27468;47.460;19.034;2022-10-31T08:43:27;51.00;;;21.10;;
41799;SDS011;27468;47.460;19.034;2022-10-31T08:45:53;57.38;;;22.20;;
41799;SDS011;27468;47.460;19.034;2022-10-31T08:48:20;49.08;;;20.30;;
41799;SDS011;27468;47.460;19.034;2022-10-31T08:50:45;46.88;;;19.23;;
41799;SDS011;27468;47.460;19.034;2022-10-31T08:53:16;50.60;;;20.73;;
41799;SDS011;27468;47.460;19.034;2022-10-31T08:55:43;49.97;;;20.80;;
41799;SDS011;27468;47.460;19.034;2022-10-31T08:58:11;48.42;;;20.45;;
41799;SDS011;27468;47.460;19.034;2022-10-31T09:00:38;49.70;;;19.70;;
41799;SDS011;27468;47.460;19.034;2022-10-31T09:03:05;45.58;;;19.17;;
41799;SDS011;27468;47.460;19.034;2022-10-31T09:05:34;47.13;;;20.70;;
41799;SDS011;27468;47.460;19.034;2022-10-31T09:08:00;44.97;;;20.25;;
41799;SDS011;27468;47.460;19.034;2022-10-31T09:10:27;47.85;;;20.77;;
41799;SDS011;27468;47.460;19.034;2022-10-31T09:12:55;43.13;;;18.40;;
41799;SDS011;27468;47.460;19.034;2022-10-31T09:15:21;48.38;;;18.88;;
41799;SDS011;27468;47.460;19.034;2022-10-31T09:17:47;41.83;;;19.17;;
41799;SDS011;27468;47.460;19.034;2022-10-31T09:20:13;42.40;;;18.83;;
41799;SDS011;27468;47.460;19.034;2022-10-31T09:22:38;45.15;;;20.25;;
41799;SDS011;27468;47.460;19.034;2022-10-31T09:25:07;46.53;;;20.52;;
41799;SDS011;27468;47.460;19.034;2022-10-31T09:27:34;44.63;;;19.52;;
41799;SDS011;27468;47.460;19.034;2022-10-31T09:29:59;48.83;;;20.60;;
41799;SDS011;27468;47.460;19.034;2022-10-31T09:32:24;46.22;;;18.48;;
41799;SDS011;27468;47.460;19.034;2022-10-31T09:34:50;49.60;;;18.38;;
41799;SDS011;27468;47.460;19.034;2022-10-31T09:37:15;43.33;;;18.92;;
41799;SDS011;27468;47.460;19.034;2022-10-31T09:39:41;44.42;;;18.88;;
41799;SDS011;27468;47.460;19.034;2022-10-31T09:42:21;47.03;;;20.33;;
41799;SDS011;27468;47.460;19.034;2022-10-31T09:55:50;38.22;;;17.98;;
41799;SDS011;27468;47.460;19.034;2022-10-31T09:58:18;36.35;;;17.48;;
41799;SDS011;27468;47.460;19.034;2022-10-31T10:00:45;40.70;;;18.55;;
41799;SDS011;27468;47.460;19.034;2022-10-31T10:03:33;44.40;;;19.55;;
41799;SDS011;27468;47.460;19.034;2022-10-31T10:06:06;41.38;;;18.88;;
41799;SDS011;27468;47.460;19.034;2022-10-31T10:08:46;40.90;;;18.70;;
41799;SDS011;27468;47.460;19.034;2022-10-31T10:19:53;44.72;;;20.25;;
41799;SDS011;27468;47.460;19.034;2022-10-31T10:33:10;40.10;;;18.45;;
41799;SDS011;27468;47.460;19.034;2022-10-31T10:40:32;35.38;;;18.33;;
41799;SDS011;27468;47.460;19.034;2022-10-31T10:45:50;31.15;;;16.70;;
41799;SDS011;27468;47.460;19.034;2022-10-31T10:48:56;33.83;;;16.88;;
41799;SDS011;27468;47.460;19.034;2022-10-31T10:51:46;31.63;;;16.50;;
41799;SDS011;27468;47.460;19.034;2022-10-31T10:57:20;33.75;;;16.95;;
41799;SDS011;27468;47.460;19.034;2022-10-31T11:00:19;28.85;;;16.33;;
41799;SDS011;27468;47.460;19.034;2022-10-31T11:02:50;28.90;;;15.88;;
41799;SDS011;27468;47.460;19.034;2022-10-31T11:05:28;27.13;;;15.57;;
41799;SDS011;27468;47.460;19.034;2022-10-31T11:13:36;31.15;;;15.60;;
41799;SDS011;27468;47.460;19.034;2022-10-31T11:18:34;29.00;;;15.90;;
41799;SDS011;27468;47.460;19.034;2022-10-31T11:21:04;29.17;;;16.20;;
41799;SDS011;27468;47.460;19.034;2022-10-31T11:23:31;28.92;;;16.13;;
41799;SDS011;27468;47.460;19.034;2022-10-31T11:26:01;26.40;;;15.52;;
41799;SDS011;27468;47.460;19.034;2022-10-31T11:28:29;26.03;;;14.87;;
41799;SDS011;27468;47.460;19.034;2022-10-31T11:31:04;28.65;;;14.88;;
41799;SDS011;27468;47.460;19.034;2022-10-31T11:33:40;29.63;;;15.07;;
41799;SDS011;27468;47.460;19.034;2022-10-31T11:36:20;26.35;;;14.75;;
41799;SDS011;27468;47.460;19.034;2022-10-31T11:38:48;27.55;;;14.32;;
41799;SDS011;27468;47.460;19.034;2022-10-31T11:41:15;26.45;;;14.75;;
41799;SDS011;27468;47.460;19.034;2022-10-31T11:43:47;26.42;;;14.80;;
41799;SDS011;27468;47.460;19.034;2022-10-31T11:46:19;28.88;;;15.88;;
41799;SDS011;27468;47.460;19.034;2022-10-31T11:48:51;26.05;;;15.10;;
41799;SDS011;27468;47.460;19.034;2022-10-31T11:51:24;29.58;;;16.55;;
41799;SDS011;27468;47.460;19.034;2022-10-31T11:53:53;25.30;;;13.98;;
41799;SDS011;27468;47.460;19.034;2022-10-31T11:56:22;30.52;;;14.98;;
41799;SDS011;27468;47.460;19.034;2022-10-31T11:59:01;26.88;;;14.57;;
41799;SDS011;27468;47.460;19.034;2022-10-31T12:01:39;29.83;;;14.82;;
41799;SDS011;27468;47.460;19.034;2022-10-31T12:04:11;28.33;;;14.50;;
41799;SDS011;27468;47.460;19.034;2022-10-31T12:06:41;25.58;;;14.57;;
41799;SDS011;27468;47.460;19.034;2022-10-31T12:25:33;26.02;;;14.73;;
41799;SDS011;27468;47.460;19.034;2022-10-31T12:28:36;28.08;;;15.07;;
41799;SDS011;27468;47.460;19.034;2022-10-31T12:36:46;26.17;;;14.80;;
41799;SDS011;27468;47.460;19.034;2022-10-31T12:42:13;27.85;;;15.63;;
41799;SDS011;27468;47.460;19.034;2022-10-31T12:45:10;25.08;;;14.32;;
41799;SDS011;27468;47.460;19.034;2022-10-31T12:53:18;24.35;;;14.77;;
41799;SDS011;27468;47.460;19.034;2022-10-31T12:55:51;27.15;;;14.88;;
41799;SDS011;27468;47.460;19.034;2022-10-31T12:58:24;26.67;;;15.48;;
41799;SDS011;27468;47.460;19.034;2022-10-31T13:01:01;27.85;;;15.15;;
41799;SDS011;27468;47.460;19.034;2022-10-31T13:03:35;27.73;;;15.50;;
41799;SDS011;27468;47.460;19.034;2022-10-31T13:06:08;27.98;;;16.20;;
41799;SDS011;27468;47.460;19.034;2022-10-31T13:08:52;26.27;;;15.13;;
41799;SDS011;27468;47.460;19.034;2022-10-31T13:11:23;28.83;;;15.63;;
41799;SDS011;27468;47.460;19.034;2022-10-31T13:14:53;27.67;;;15.68;;
41799;SDS011;27468;47.460;19.034;2022-10-31T13:17:03;25.55;;;14.00;;
41799;SDS011;27468;47.460;19.034;2022-10-31T13:19:38;30.38;;;16.35;;
41799;SDS011;27468;47.460;19.034;2022-10-31T13:22:21;26.88;;;15.68;;
41799;SDS011;27468;47.460;19.034;2022-10-31T13:27:20;30.00;;;15.65;;
41799;SDS011;27468;47.460;19.034;2022-10-31T13:32:17;26.58;;;14.32;;
41799;SDS011;27468;47.460;19.034;2022-10-31T13:34:46;26.40;;;15.02;;
41799;SDS011;27468;47.460;19.034;2022-10-31T13:45:24;22.80;;;14.02;;
41799;SDS011;27468;47.460;19.034;2022-10-31T13:50:56;23.00;;;13.50;;
41799;SDS011;27468;47.460;19.034;2022-10-31T13:53:22;22.77;;;13.65;;
41799;SDS011;27468;47.460;19.034;2022-10-31T14:01:34;22.90;;;13.23;;
41799;SDS011;27468;47.460;19.034;2022-10-31T14:06:39;24.13;;;13.55;;
41799;SDS011;27468;47.460;19.034;2022-10-31T14:11:56;25.13;;;13.95;;
41799;SDS011;27468;47.460;19.034;2022-10-31T14:14:28;28.50;;;15.00;;
41799;SDS011;27468;47.460;19.034;2022-10-31T14:16:57;25.40;;;15.00;;
41799;SDS011;27468;47.460;19.034;2022-10-31T14:19:24;26.05;;;15.05;;
41799;SDS011;27468;47.460;19.034;2022-10-31T14:21:50;25.02;;;14.23;;
41799;SDS011;27468;47.460;19.034;2022-10-31T14:26:58;29.58;;;16.45;;
41799;SDS011;27468;47.460;19.034;2022-10-31T14:29:26;28.60;;;15.85;;
41799;SDS011;27468;47.460;19.034;2022-10-31T14:31:55;26.50;;;14.57;;
41799;SDS011;27468;47.460;19.034;2022-10-31T14:34:33;27.73;;;15.25;;
41799;SDS011;27468;47.460;19.034;2022-10-31T14:37:05;25.27;;;14.60;;
41799;SDS011;27468;47.460;19.034;2022-10-31T14:52:57;25.60;;;14.88;;
41799;SDS011;27468;47.460;19.034;2022-10-31T14:55:27;26.92;;;15.18;;
41799;SDS011;27468;47.460;19.034;2022-10-31T14:58:02;28.48;;;16.60;;
41799;SDS011;27468;47.460;19.034;2022-10-31T15:00:32;29.30;;;15.98;;
41799;SDS011;27468;47.460;19.034;2022-10-31T15:05:31;26.40;;;15.77;;
41799;SDS011;27468;47.460;19.034;2022-10-31T15:07:59;29.58;;;15.70;;
41799;SDS011;27468;47.460;19.034;2022-10-31T15:10:26;30.63;;;17.08;;
41799;SDS011;27468;47.460;19.034;2022-10-31T15:12:55;34.72;;;18.52;;
41799;SDS011;27468;47.460;19.034;2022-10-31T15:15:24;31.65;;;17.38;;
41799;SDS011;27468;47.460;19.034;2022-10-31T15:20:18;32.53;;;17.80;;
41799;SDS011;27468;47.460;19.034;2022-10-31T15:22:46;33.30;;;18.30;;
41799;SDS011;27468;47.460;19.034;2022-10-31T15:25:20;30.77;;;17.38;;
41799;SDS011;27468;47.460;19.034;2022-10-31T15:27:47;35.55;;;19.02;;
41799;SDS011;27468;47.460;19.034;2022-10-31T15:30:21;32.92;;;18.10;;
41799;SDS011;27468;47.460;19.034;2022-10-31T15:32:48;36.42;;;17.63;;
41799;SDS011;27468;47.460;19.034;2022-10-31T15:35:19;33.30;;;17.92;;
41799;SDS011;27468;47.460;19.034;2022-10-31T15:37:45;32.35;;;17.65;;
41799;SDS011;27468;47.460;19.034;2022-10-31T15:40:17;35.78;;;19.20;;
41799;SDS011;27468;47.460;19.034;2022-10-31T15:42:46;40.60;;;22.30;;
41799;SDS011;27468;47.460;19.034;2022-10-31T15:45:22;37.63;;;20.42;;
41799;SDS011;27468;47.460;19.034;2022-10-31T15:48:00;37.67;;;20.30;;
41799;SDS011;27468;47.460;19.034;2022-10-31T15:53:05;34.72;;;18.38;;
41799;SDS011;27468;47.460;19.034;2022-10-31T15:55:45;31.13;;;17.80;;
41799;SDS011;27468;47.460;19.034;2022-10-31T15:58:14;34.03;;;18.75;;
41799;SDS011;27468;47.460;19.034;2022-10-31T16:00:42;29.80;;;16.90;;
41799;SDS011;27468;47.460;19.034;2022-10-31T16:05:46;31.75;;;18.15;;
41799;SDS011;27468;47.460;19.034;2022-10-31T16:10:58;31.60;;;17.17;;
41799;SDS011;27468;47.460;19.034;2022-10-31T16:13:56;33.95;;;18.88;;
41799;SDS011;27468;47.460;19.034;2022-10-31T16:16:24;33.13;;;19.15;;
41799;SDS011;27468;47.460;19.034;2022-10-31T16:18:51;35.33;;;19.60;;
41799;SDS011;27468;47.460;19.034;2022-10-31T16:21:28;35.08;;;19.13;;
41799;SDS011;27468;47.460;19.034;2022-10-31T16:24:04;34.25;;;19.42;;
41799;SDS011;27468;47.460;19.034;2022-10-31T16:26:39;33.45;;;19.13;;
41799;SDS011;27468;47.460;19.034;2022-10-31T16:29:22;34.90;;;19.10;;
41799;SDS011;27468;47.460;19.034;2022-10-31T16:31:50;36.35;;;19.30;;
41799;SDS011;27468;47.460;19.034;2022-10-31T16:34:22;33.15;;;19.15;;
41799;SDS011;27468;47.460;19.034;2022-10-31T16:36:48;33.05;;;17.35;;
41799;SDS011;27468;47.460;19.034;2022-10-31T16:39:13;34.80;;;18.70;;
41799;SDS011;27468;47.460;19.034;2022-10-31T16:41:46;35.15;;;20.05;;
41799;SDS011;27468;47.460;19.034;2022-10-31T16:44:32;35.08;;;19.60;;
41799;SDS011;27468;47.460;19.034;2022-10-31T16:47:16;36.50;;;19.77;;
41799;SDS011;27468;47.460;19.034;2022-10-31T16:49:42;41.50;;;21.45;;
41799;SDS011;27468;47.460;19.034;2022-10-31T16:52:11;39.60;;;21.10;;
41799;SDS011;27468;47.460;19.034;2022-10-31T16:54:36;39.42;;;20.65;;
41799;SDS011;27468;47.460;19.034;2022-10-31T16:57:02;42.40;;;20.58;;
41799;SDS011;27468;47.460;19.034;2022-10-31T16:59:29;41.53;;;22.13;;
41799;SDS011;27468;47.460;19.034;2022-10-31T17:01:56;43.53;;;21.80;;
41799;SDS011;27468;47.460;19.034;2022-10-31T17:04:23;41.63;;;22.00;;
41799;SDS011;27468;47.460;19.034;2022-10-31T17:06:48;42.50;;;20.33;;
41799;SDS011;27468;47.460;19.034;2022-10-31T17:09:13;43.40;;;20.80;;
41799;SDS011;27468;47.460;19.034;2022-10-31T17:11:40;41.85;;;19.20;;
41799;SDS011;27468;47.460;19.034;2022-10-31T17:14:12;41.65;;;20.27;;
41799;SDS011;27468;47.460;19.034;2022-10-31T17:16:38;40.40;;;21.48;;
41799;SDS011;27468;47.460;19.034;2022-10-31T17:19:03;42.55;;;19.52;;